Time;durP1;ratioP1;P1;durP2;ratioP2;P2;SDS_P1;SDS_P2;PMS_P1;PMS_P2;Temp;Humidity;BMP_temperature;BMP_pressure;BME280_temperature;BME280_humidity;BME280_pressure;Samples;Min_cycle;Max_cycle;Signal;HPM_P1;HPM_P2
2020/12/06 00:00:25;;;;;;;9.07;5.97;;;21.30;53.00;;;;;;5054163;28;20167;-66
2020/12/06 00:02:52;;;;;;;8.97;6.03;;;21.30;53.00;;;;;;5053938;28;20657;-66
2020/12/06 00:05:18;;;;;;;8.50;6.20;;;21.30;53.10;;;;;;5053755;28;20187;-66
2020/12/06 00:07:43;;;;;;;8.33;5.30;;;21.30;53.00;;;;;;5054329;28;20420;-66
2020/12/06 00:10:17;;;;;;;10.00;6.13;;;21.30;53.00;;;;;;5053723;28;20194;-66
2020/12/06 00:12:44;;;;;;;7.03;4.97;;;21.30;53.00;;;;;;5053666;28;20183;-66
2020/12/06 00:15:12;;;;;;;7.87;5.37;;;21.30;53.00;;;;;;5053898;28;20402;-66
2020/12/06 00:17:38;;;;;;;8.80;5.20;;;21.30;53.00;;;;;;5053097;28;20405;-66
2020/12/06 00:20:09;;;;;;;8.87;5.50;;;21.30;53.00;;;;;;5035511;28;20500;-66
2020/12/06 00:22:35;;;;;;;9.37;5.83;;;21.30;53.00;;;;;;5053529;28;20222;-66
2020/12/06 00:25:01;;;;;;;8.40;5.70;;;21.30;53.00;;;;;;5053495;28;20434;-66
2020/12/06 00:27:26;;;;;;;8.13;5.83;;;21.30;52.90;;;;;;5053500;28;20171;-66
2020/12/06 00:29:52;;;;;;;8.10;5.17;;;21.30;52.90;;;;;;5053407;28;20553;-66
2020/12/06 00:32:17;;;;;;;6.60;5.40;;;21.30;53.00;;;;;;5053321;28;20301;-66
2020/12/06 00:34:43;;;;;;;8.70;6.17;;;21.30;52.90;;;;;;5053338;28;20199;-66
2020/12/06 00:37:09;;;;;;;9.07;5.73;;;21.30;52.90;;;;;;5053227;28;20163;-66
2020/12/06 00:39:34;;;;;;;9.03;5.53;;;21.30;52.90;;;;;;5053976;28;20325;-66
2020/12/06 00:42:00;;;;;;;6.97;5.37;;;21.30;52.90;;;;;;5053984;28;20256;-66
2020/12/06 00:44:25;;;;;;;7.43;5.20;;;21.30;52.90;;;;;;5053646;28;20167;-66
2020/12/06 00:46:51;;;;;;;8.90;5.47;;;21.30;52.90;;;;;;5053085;28;20178;-66
2020/12/06 00:49:17;;;;;;;8.50;5.57;;;21.30;52.90;;;;;;5053666;28;20176;-66
2020/12/06 00:51:42;;;;;;;7.13;4.90;;;21.30;52.90;;;;;;5052975;28;20201;-66
2020/12/06 00:54:08;;;;;;;9.63;4.80;;;21.30;53.00;;;;;;5053066;28;20182;-66
2020/12/06 00:56:33;;;;;;;7.63;5.93;;;21.30;53.00;;;;;;5053048;28;20171;-66
2020/12/06 00:58:59;;;;;;;9.43;5.10;;;21.20;52.90;;;;;;5053250;28;20175;-66
2020/12/06 01:01:24;;;;;;;8.97;5.53;;;21.20;53.00;;;;;;5052842;28;20191;-66
2020/12/06 01:03:50;;;;;;;9.93;4.80;;;21.20;53.00;;;;;;5052966;28;20182;-66
2020/12/06 01:06:18;;;;;;;6.00;4.97;;;21.20;53.10;;;;;;5052860;28;20246;-66
2020/12/06 01:08:44;;;;;;;6.87;4.80;;;21.20;53.10;;;;;;5052885;28;20174;-66
2020/12/06 01:11:13;;;;;;;6.47;4.57;;;21.10;53.00;;;;;;5052963;28;20446;-66
2020/12/06 01:13:40;;;;;;;6.60;4.83;;;21.10;53.00;;;;;;5053062;28;20410;-66
2020/12/06 01:16:06;;;;;;;7.20;5.83;;;21.10;53.10;;;;;;5052786;28;20450;-66
2020/12/06 01:18:32;;;;;;;5.90;4.60;;;21.10;53.10;;;;;;5053293;28;20449;-66
2020/12/06 01:20:57;;;;;;;6.63;4.40;;;21.10;53.10;;;;;;5052924;28;20576;-66
2020/12/06 01:23:23;;;;;;;7.90;4.83;;;21.10;53.20;;;;;;5034886;28;20170;-66
2020/12/06 01:25:49;;;;;;;6.77;4.47;;;21.10;53.20;;;;;;5053012;28;20171;-66
2020/12/06 01:28:15;;;;;;;6.10;4.33;;;21.10;53.20;;;;;;5052737;28;20276;-66
2020/12/06 01:30:41;;;;;;;7.10;4.90;;;21.10;53.30;;;;;;5036380;28;20449;-66
2020/12/06 01:33:07;;;;;;;8.03;5.10;;;21.10;53.20;;;;;;5056605;28;20190;-66
2020/12/06 01:35:33;;;;;;;9.03;5.13;;;21.10;53.30;;;;;;5056558;28;20409;-66
2020/12/06 01:38:00;;;;;;;7.80;5.03;;;21.00;53.20;;;;;;5056551;28;20447;-66
2020/12/06 01:40:27;;;;;;;7.87;4.50;;;21.00;53.20;;;;;;5056563;28;20167;-66
2020/12/06 01:42:52;;;;;;;7.20;4.93;;;21.00;53.20;;;;;;5056465;28;20425;-66
2020/12/06 01:45:18;;;;;;;6.60;4.57;;;21.00;53.20;;;;;;5056474;28;20897;-66
2020/12/06 01:47:43;;;;;;;7.50;4.97;;;21.00;53.20;;;;;;5056476;28;20601;-66
2020/12/06 01:50:09;;;;;;;9.90;5.23;;;21.00;53.30;;;;;;5056445;28;20668;-65
2020/12/06 01:52:35;;;;;;;7.47;4.53;;;21.00;53.30;;;;;;5056368;28;20195;-66
2020/12/06 01:55:03;;;;;;;7.03;4.90;;;21.00;53.30;;;;;;5056527;28;20167;-66
2020/12/06 01:57:28;;;;;;;7.03;5.00;;;21.00;53.30;;;;;;5056285;28;20405;-66
2020/12/06 01:59:54;;;;;;;5.37;3.90;;;20.90;53.30;;;;;;5056126;28;20444;-66
2020/12/06 02:02:19;;;;;;;7.57;5.60;;;20.90;53.30;;;;;;5056060;28;20222;-66
2020/12/06 02:04:45;;;;;;;7.63;4.30;;;20.90;53.30;;;;;;5056095;28;20270;-66
2020/12/06 02:07:11;;;;;;;5.23;4.03;;;20.90;53.30;;;;;;5056060;28;20258;-66
2020/12/06 02:09:37;;;;;;;5.13;4.63;;;21.00;53.30;;;;;;5055977;28;20286;-66
2020/12/06 02:12:07;;;;;;;10.40;5.50;;;21.00;53.30;;;;;;5055895;28;20434;-66
2020/12/06 02:14:33;;;;;;;5.73;4.40;;;21.00;53.20;;;;;;5056025;28;20520;-66
2020/12/06 02:16:59;;;;;;;6.83;4.30;;;21.00;53.20;;;;;;5056375;28;20505;-66
2020/12/06 02:19:25;;;;;;;6.30;4.77;;;21.00;53.10;;;;;;5055814;28;20528;-66
2020/12/06 02:21:50;;;;;;;6.47;4.27;;;21.00;53.10;;;;;;5055781;28;20731;-66
2020/12/06 02:24:17;;;;;;;6.50;4.80;;;21.10;53.20;;;;;;5056543;28;20171;-66
2020/12/06 02:26:45;;;;;;;4.87;4.37;;;21.10;53.10;;;;;;5055977;28;20175;-66
2020/12/06 02:29:11;;;;;;;5.70;4.20;;;21.10;53.10;;;;;;5037818;28;20783;-65
2020/12/06 02:31:38;;;;;;;7.03;4.40;;;21.10;53.00;;;;;;5055500;28;20421;-66
2020/12/06 02:34:04;;;;;;;6.43;4.00;;;21.10;53.00;;;;;;5037650;28;20413;-65
2020/12/06 02:36:30;;;;;;;8.53;5.07;;;21.10;53.00;;;;;;5055599;28;20398;-66
2020/12/06 02:38:56;;;;;;;6.40;4.87;;;21.10;53.60;;;;;;5055448;28;20433;-66
2020/12/06 02:41:22;;;;;;;5.10;4.00;;;21.10;53.00;;;;;;5055171;28;20544;-66
2020/12/06 02:43:47;;;;;;;6.03;4.40;;;21.10;53.00;;;;;;5056970;28;20254;-66
2020/12/06 02:46:13;;;;;;;6.80;4.63;;;21.10;52.90;;;;;;5055362;28;20167;-66
2020/12/06 02:48:38;;;;;;;4.97;4.47;;;21.10;52.90;;;;;;5055271;28;20186;-66
2020/12/06 02:51:05;;;;;;;6.93;4.27;;;21.10;52.90;;;;;;5055182;28;20175;-65
2020/12/06 02:53:31;;;;;;;4.83;3.63;;;21.10;52.90;;;;;;5055242;28;20167;-66
2020/12/06 02:55:57;;;;;;;5.63;3.70;;;21.10;53.00;;;;;;5055235;28;20912;-65
2020/12/06 02:58:22;;;;;;;7.87;4.30;;;21.10;53.00;;;;;;5055038;28;20499;-66
2020/12/06 03:00:48;;;;;;;6.83;4.50;;;21.10;53.00;;;;;;5055358;28;20172;-66
2020/12/06 03:03:13;;;;;;;5.73;4.30;;;21.10;53.10;;;;;;5054875;28;20598;-66
2020/12/06 03:05:39;;;;;;;5.60;3.87;;;21.10;53.10;;;;;;5055339;28;20163;-66
2020/12/06 03:08:05;;;;;;;5.63;3.80;;;21.10;53.10;;;;;;5055291;28;20647;-66
2020/12/06 03:10:31;;;;;;;5.73;3.80;;;21.10;53.10;;;;;;5054867;28;20258;-65
2020/12/06 03:12:56;;;;;;;6.63;4.30;;;21.10;53.00;;;;;;5054760;28;20515;-66
2020/12/06 03:15:22;;;;;;;6.10;4.10;;;21.10;53.00;;;;;;5054809;28;20218;-66
2020/12/06 03:17:47;;;;;;;4.80;4.00;;;21.10;53.00;;;;;;5054675;28;20175;-66
2020/12/06 03:20:13;;;;;;;4.97;3.90;;;21.10;53.00;;;;;;5054821;28;20179;-66
2020/12/06 03:22:39;;;;;;;5.20;4.03;;;21.10;52.90;;;;;;5054626;28;20273;-66
2020/12/06 03:25:04;;;;;;;5.83;4.10;;;21.10;52.90;;;;;;5054620;28;20171;-66
2020/12/06 03:27:30;;;;;;;5.57;3.70;;;21.10;52.90;;;;;;5054920;28;20257;-66
2020/12/06 03:29:56;;;;;;;4.60;3.50;;;21.10;52.90;;;;;;5054559;28;20236;-66
2020/12/06 03:32:23;;;;;;;4.47;4.07;;;21.10;52.90;;;;;;5054691;28;20285;-66
2020/12/06 03:34:49;;;;;;;5.13;3.17;;;21.10;52.90;;;;;;5054472;28;20405;-66
2020/12/06 03:37:14;;;;;;;10.27;4.63;;;21.20;52.90;;;;;;5036437;28;20421;-66
2020/12/06 03:39:40;;;;;;;4.70;3.47;;;21.20;52.90;;;;;;5036477;28;20460;-66
2020/12/06 03:42:05;;;;;;;3.43;3.13;;;21.20;53.50;;;;;;5036339;28;20195;-66
2020/12/06 03:44:32;;;;;;;6.37;4.00;;;21.10;53.40;;;;;;5067344;23;20265;-67
2020/12/06 03:46:57;;;;;;;6.00;4.03;;;21.20;52.90;;;;;;5070636;28;20221;-68
2020/12/06 03:49:23;;;;;;;4.97;4.00;;;21.10;52.80;;;;;;5071685;28;20945;-66
2020/12/06 03:51:49;;;;;;;5.97;4.00;;;21.10;52.90;;;;;;5074005;28;20256;-66
2020/12/06 03:54:14;;;;;;;5.50;3.90;;;21.10;52.90;;;;;;5073275;28;20621;-66
2020/12/06 03:56:40;;;;;;;5.90;3.97;;;21.10;52.90;;;;;;5074006;28;20205;-66
2020/12/06 03:59:05;;;;;;;4.10;3.47;;;21.10;53.00;;;;;;5074121;28;20198;-66
2020/12/06 04:01:31;;;;;;;5.53;3.90;;;21.10;53.00;;;;;;5073814;28;20277;-66
2020/12/06 04:03:56;;;;;;;5.53;3.47;;;21.10;53.10;;;;;;5074114;28;20231;-66
2020/12/06 04:06:22;;;;;;;5.73;4.00;;;21.10;53.00;;;;;;5073724;28;20170;-66
2020/12/06 04:08:48;;;;;;;6.43;3.80;;;21.10;53.00;;;;;;5074809;28;20174;-67
2020/12/06 04:11:13;;;;;;;6.17;4.00;;;21.10;53.00;;;;;;5073908;28;20547;-67
2020/12/06 04:13:39;;;;;;;6.60;3.87;;;21.10;53.00;;;;;;5074001;28;20247;-67
2020/12/06 04:16:04;;;;;;;4.60;3.80;;;21.10;53.00;;;;;;5073663;28;20260;-67
2020/12/06 04:18:30;;;;;;;4.90;3.60;;;21.10;52.90;;;;;;5073516;28;20233;-67
2020/12/06 04:20:56;;;;;;;4.23;3.60;;;21.10;53.00;;;;;;5073468;28;20171;-66
2020/12/06 04:23:21;;;;;;;5.33;3.90;;;21.10;52.90;;;;;;5073554;28;20163;-66
2020/12/06 04:25:47;;;;;;;5.80;3.93;;;21.10;52.90;;;;;;5073787;28;20177;-67
2020/12/06 04:28:12;;;;;;;5.73;4.03;;;21.10;52.90;;;;;;5073459;28;20170;-66
2020/12/06 04:30:39;;;;;;;5.03;3.23;;;21.10;52.90;;;;;;5072200;28;20174;-66
2020/12/06 04:33:05;;;;;;;4.97;3.30;;;21.10;52.90;;;;;;5073274;28;20202;-67
2020/12/06 04:35:30;;;;;;;3.70;3.30;;;21.10;52.90;;;;;;5072233;28;20431;-65
2020/12/06 04:37:56;;;;;;;4.23;3.20;;;21.10;52.80;;;;;;5073225;28;20174;-66
2020/12/06 04:40:22;;;;;;;5.93;3.80;;;21.10;52.80;;;;;;5073348;28;20204;-66
2020/12/06 04:42:48;;;;;;;4.83;3.50;;;21.10;52.90;;;;;;5073187;28;20243;-67
2020/12/06 04:45:14;;;;;;;4.67;3.80;;;21.10;52.80;;;;;;5073108;28;20186;-66
2020/12/06 04:47:47;;;;;;;4.40;3.10;;;21.10;52.80;;;;;;5073225;28;20795;-66
2020/12/06 04:50:25;;;;;;;3.80;3.40;;;21.10;52.90;;;;;;5073257;28;20587;-66
2020/12/06 04:52:57;;;;;;;5.17;3.83;;;21.10;52.90;;;;;;5073066;28;20499;-67
2020/12/06 04:55:26;;;;;;;6.23;3.83;;;21.10;53.00;;;;;;5073159;28;20377;-66
2020/12/06 04:57:56;;;;;;;4.37;3.57;;;21.00;53.00;;;;;;5073218;28;20483;-65
2020/12/06 05:00:36;;;;;;;4.20;3.30;;;21.00;53.00;;;;;;5073268;28;20409;-66
2020/12/06 05:03:07;;;;;;;5.10;3.40;;;21.00;53.10;;;;;;5072975;28;20430;-66
2020/12/06 05:05:35;;;;;;;6.47;3.90;;;21.00;53.10;;;;;;5072865;28;20408;-66
2020/12/06 05:08:12;;;;;;;3.73;3.33;;;20.90;53.00;;;;;;5071640;28;20930;-66
2020/12/06 05:10:41;;;;;;;5.53;3.67;;;20.90;53.10;;;;;;5072923;28;20415;-67
2020/12/06 05:13:09;;;;;;;4.53;3.63;;;20.90;53.20;;;;;;5072926;28;20512;-66
2020/12/06 05:15:35;;;;;;;4.30;3.40;;;20.90;53.20;;;;;;5072933;28;20400;-66
2020/12/06 05:18:02;;;;;;;3.10;2.77;;;20.90;53.80;;;;;;5073073;28;20417;-66
2020/12/06 05:20:28;;;;;;;4.43;3.30;;;20.90;53.30;;;;;;5072996;28;20405;-66
2020/12/06 05:22:54;;;;;;;6.00;3.43;;;20.80;53.20;;;;;;5071458;28;20795;-66
2020/12/06 05:25:20;;;;;;;5.13;3.90;;;20.80;53.20;;;;;;5072818;28;20515;-66
2020/12/06 05:27:46;;;;;;;4.73;3.20;;;20.80;53.20;;;;;;5072804;28;20162;-66
2020/12/06 05:30:12;;;;;;;4.10;3.50;;;20.80;53.30;;;;;;5072826;28;20198;-66
2020/12/06 05:32:38;;;;;;;4.77;3.03;;;20.80;53.30;;;;;;5072891;28;20471;-66
2020/12/06 05:35:05;;;;;;;5.50;4.33;;;20.80;53.30;;;;;;5072801;28;20170;-66
2020/12/06 05:37:31;;;;;;;4.90;3.63;;;20.80;53.30;;;;;;5072972;28;20793;-66
2020/12/06 05:40:05;;;;;;;4.57;3.17;;;20.80;53.30;;;;;;5072863;28;20607;-66
2020/12/06 05:42:34;;;;;;;4.10;3.30;;;20.80;53.30;;;;;;5072550;28;20273;-66
2020/12/06 05:45:01;;;;;;;3.80;3.10;;;20.70;53.30;;;;;;5072382;28;20430;-66
2020/12/06 05:47:27;;;;;;;4.17;3.10;;;20.80;53.40;;;;;;5072623;28;20409;-66
2020/12/06 05:49:55;;;;;;;4.60;3.30;;;20.70;53.30;;;;;;5071308;28;20427;-66
2020/12/06 05:52:20;;;;;;;4.20;3.17;;;20.80;53.40;;;;;;5071152;28;20438;-66
2020/12/06 05:54:47;;;;;;;5.13;3.70;;;20.80;53.40;;;;;;5072521;28;20499;-65
2020/12/06 05:57:13;;;;;;;3.77;2.90;;;20.70;53.30;;;;;;5072790;28;20181;-66
2020/12/06 05:59:40;;;;;;;4.03;3.33;;;20.80;53.40;;;;;;5072449;28;20448;-66
2020/12/06 06:02:07;;;;;;;3.80;3.20;;;20.80;53.40;;;;;;5072183;28;20456;-66
2020/12/06 06:04:38;;;;;;;4.53;3.10;;;20.80;53.30;;;;;;5072720;28;20401;-66
2020/12/06 06:07:06;;;;;;;4.57;3.20;;;20.80;53.30;;;;;;5072781;28;20392;-66
2020/12/06 06:09:39;;;;;;;5.10;3.20;;;20.80;53.30;;;;;;5072409;28;20413;-66
2020/12/06 06:12:28;;;;;;;4.30;3.03;;;20.80;53.30;;;;;;5072936;28;20424;-66
2020/12/06 06:14:56;;;;;;;4.20;3.17;;;20.80;53.20;;;;;;5072368;28;20381;-66
2020/12/06 06:17:25;;;;;;;4.43;3.20;;;20.80;53.30;;;;;;5074857;28;20787;-65
2020/12/06 06:19:51;;;;;;;4.77;3.47;;;20.80;53.30;;;;;;5075808;28;20502;-66
2020/12/06 06:22:38;;;;;;;3.73;2.70;;;20.80;53.30;;;;;;5075776;28;20478;-66
2020/12/06 06:25:06;;;;;;;4.47;3.17;;;20.80;53.30;;;;;;5075212;28;20413;-66
2020/12/06 06:27:37;;;;;;;3.50;2.80;;;20.80;53.30;;;;;;5074509;28;20496;-66
2020/12/06 06:30:05;;;;;;;4.90;3.73;;;20.80;53.30;;;;;;5075807;28;20562;-66
2020/12/06 06:32:31;;;;;;;4.03;2.73;;;20.80;53.30;;;;;;5075613;28;20602;-66
2020/12/06 06:34:59;;;;;;;3.67;2.90;;;20.80;53.30;;;;;;5075907;28;20856;-66
2020/12/06 06:37:29;;;;;;;3.53;3.00;;;20.90;53.30;;;;;;5075605;28;20412;-66
2020/12/06 06:39:58;;;;;;;3.90;3.20;;;20.90;53.10;;;;;;5075425;28;20493;-66
2020/12/06 06:42:26;;;;;;;4.93;2.77;;;20.90;53.00;;;;;;5075676;28;20497;-66
2020/12/06 06:45:02;;;;;;;3.80;3.40;;;21.00;53.10;;;;;;5075439;28;20416;-66
2020/12/06 06:47:28;;;;;;;4.43;3.07;;;21.00;53.00;;;;;;5075455;28;20941;-66
2020/12/06 06:49:56;;;;;;;3.10;2.77;;;21.10;53.00;;;;;;5075491;28;20937;-66
2020/12/06 06:52:29;;;;;;;2.50;2.30;;;21.10;52.90;;;;;;5073940;28;20486;-66
2020/12/06 06:54:56;;;;;;;3.70;3.10;;;21.10;52.90;;;;;;5075207;28;20401;-66
2020/12/06 06:57:23;;;;;;;3.80;3.30;;;21.20;52.90;;;;;;5075178;28;20413;-66
2020/12/06 06:59:51;;;;;;;4.40;3.00;;;21.20;52.90;;;;;;5075045;28;20451;-66
2020/12/06 07:02:37;;;;;;;3.90;3.40;;;21.20;52.90;;;;;;5075032;28;20425;-66
2020/12/06 07:05:19;;;;;;;3.70;2.90;;;21.30;52.90;;;;;;5075215;28;20400;-66
2020/12/06 07:07:49;;;;;;;2.90;2.67;;;21.30;52.90;;;;;;5075343;28;20487;-66
2020/12/06 07:10:20;;;;;;;3.47;2.80;;;21.30;52.80;;;;;;5074758;28;20412;-65
2020/12/06 07:12:50;;;;;;;4.37;2.93;;;21.30;52.80;;;;;;5074905;28;20936;-66
2020/12/06 07:15:18;;;;;;;3.50;2.60;;;21.30;52.80;;;;;;5074896;28;20397;-66
2020/12/06 07:17:44;;;;;;;3.10;2.40;;;21.30;52.80;;;;;;5074807;28;20392;-66
2020/12/06 07:20:13;;;;;;;2.97;2.67;;;21.30;52.70;;;;;;5074747;28;20440;-66
2020/12/06 07:22:39;;;;;;;4.67;2.83;;;21.40;52.80;;;;;;5074933;28;20425;-66
2020/12/06 07:25:06;;;;;;;3.77;2.70;;;21.40;52.70;;;;;;5074644;28;20405;-66
2020/12/06 07:27:33;;;;;;;3.90;2.80;;;21.40;52.70;;;;;;5073703;28;20405;-66
2020/12/06 07:29:59;;;;;;;3.73;2.80;;;21.40;53.30;;;;;;5074322;28;20407;-66
2020/12/06 07:32:25;;;;;;;4.20;3.13;;;21.40;52.70;;;;;;5074379;28;20443;-66
2020/12/06 07:34:50;;;;;;;3.40;2.57;;;21.40;52.70;;;;;;5074419;28;20401;-66
2020/12/06 07:37:16;;;;;;;2.90;2.33;;;21.40;52.70;;;;;;5074702;28;20174;-66
2020/12/06 07:39:46;;;;;;;2.90;2.53;;;21.40;52.70;;;;;;5074549;28;20673;-65
2020/12/06 07:42:25;;;;;;;3.80;3.00;;;21.50;52.70;;;;;;5074210;28;20193;-66
2020/12/06 07:44:56;;;;;;;3.20;2.90;;;21.50;52.70;;;;;;5072877;28;20417;-66
2020/12/06 07:47:23;;;;;;;3.90;2.70;;;21.50;52.70;;;;;;5074266;28;20409;-66
2020/12/06 07:49:52;;;;;;;3.70;2.80;;;21.50;52.70;;;;;;5074261;28;20400;-66
2020/12/06 07:52:20;;;;;;;2.70;2.33;;;21.50;52.70;;;;;;5074042;28;20420;-66
2020/12/06 07:54:58;;;;;;;2.50;2.30;;;21.50;52.70;;;;;;5072820;28;20478;-66
2020/12/06 07:57:30;;;;;;;3.60;2.33;;;21.50;52.70;;;;;;5074461;28;20816;-66
2020/12/06 07:59:58;;;;;;;2.97;2.63;;;21.50;52.70;;;;;;5073906;28;20523;-66
2020/12/06 08:02:24;;;;;;;3.90;3.13;;;21.50;53.30;;;;;;5072595;28;20472;-63
2020/12/06 08:04:52;;;;;;;3.30;2.57;;;21.50;52.70;;;;;;5056616;28;20467;-66
2020/12/06 08:07:24;;;;;;;2.43;2.23;;;21.40;52.70;;;;;;5074147;28;20494;-66
2020/12/06 08:09:51;;;;;;;3.10;2.70;;;21.50;52.70;;;;;;5074054;28;20388;-66
2020/12/06 08:12:18;;;;;;;3.30;2.70;;;21.50;52.80;;;;;;5073663;28;21009;-66
2020/12/06 08:14:44;;;;;;;4.20;3.27;;;21.50;52.80;;;;;;5074013;28;20496;-66
2020/12/06 08:17:10;;;;;;;3.17;2.60;;;21.50;52.80;;;;;;5073626;28;20899;-66
2020/12/06 08:19:38;;;;;;;3.30;2.57;;;21.50;52.80;;;;;;5073385;28;20208;-66
2020/12/06 08:22:05;;;;;;;4.00;2.57;;;21.40;52.70;;;;;;5072245;28;20191;-66
2020/12/06 08:24:31;;;;;;;2.67;2.47;;;21.50;52.80;;;;;;5073502;28;20409;-66
2020/12/06 08:26:58;;;;;;;3.50;3.20;;;21.50;52.80;;;;;;5073804;28;20400;-66
2020/12/06 08:29:43;;;;;;;3.03;2.50;;;21.40;52.70;;;;;;5073389;28;20412;-66
2020/12/06 08:32:10;;;;;;;3.00;2.60;;;21.40;52.70;;;;;;5071812;28;20531;-65
2020/12/06 08:34:36;;;;;;;3.07;2.50;;;21.40;52.80;;;;;;5073568;28;20423;-66
2020/12/06 08:37:16;;;;;;;3.23;2.47;;;21.40;52.80;;;;;;5073384;28;20405;-66
2020/12/06 08:39:42;;;;;;;3.70;2.63;;;21.40;52.70;;;;;;5073074;28;20806;-65
2020/12/06 08:42:20;;;;;;;3.03;2.53;;;21.40;52.80;;;;;;5074668;28;20438;-66
2020/12/06 08:44:53;;;;;;;3.10;2.80;;;21.40;52.80;;;;;;5073123;28;20166;-66
2020/12/06 08:47:20;;;;;;;3.17;2.67;;;21.40;52.80;;;;;;5073233;28;20984;-66
2020/12/06 08:49:46;;;;;;;3.83;2.73;;;21.40;52.80;;;;;;5073112;28;20405;-66
2020/12/06 08:52:21;;;;;;;4.30;2.50;;;21.40;52.80;;;;;;5073081;28;20787;-66
2020/12/06 08:54:49;;;;;;;3.10;2.07;;;21.40;52.80;;;;;;5073068;28;20224;-66
2020/12/06 08:57:15;;;;;;;3.27;2.90;;;21.40;52.80;;;;;;5071830;28;20443;-68
2020/12/06 08:59:42;;;;;;;3.33;2.40;;;21.40;53.10;;;;;;5073237;28;20440;-68
2020/12/06 09:02:08;;;;;;;2.50;2.30;;;21.40;53.40;;;;;;5072980;28;20420;-68
2020/12/06 09:04:35;;;;;;;3.03;2.40;;;21.40;52.80;;;;;;5073002;28;20404;-68
2020/12/06 09:07:03;;;;;;;3.63;3.13;;;21.40;52.80;;;;;;5072977;28;20393;-68
2020/12/06 09:09:29;;;;;;;3.67;2.80;;;21.40;52.80;;;;;;5073005;28;20428;-67
2020/12/06 09:11:56;;;;;;;2.30;2.10;;;21.40;52.80;;;;;;5072811;28;20518;-68
2020/12/06 09:14:22;;;;;;;2.70;2.07;;;21.40;52.80;;;;;;5073218;28;20171;-68
2020/12/06 09:16:47;;;;;;;2.70;2.00;;;21.40;52.80;;;;;;5072960;28;20405;-67
2020/12/06 09:19:13;;;;;;;3.10;2.50;;;21.40;52.80;;;;;;5072902;28;20444;-67
2020/12/06 09:21:39;;;;;;;3.77;2.47;;;21.40;52.80;;;;;;5073051;28;20189;-68
2020/12/06 09:24:05;;;;;;;2.80;2.40;;;21.40;52.80;;;;;;5072785;28;20170;-68
2020/12/06 09:26:30;;;;;;;3.63;2.70;;;21.40;52.80;;;;;;5072782;28;20174;-67
2020/12/06 09:28:56;;;;;;;3.37;2.23;;;21.40;52.80;;;;;;5072704;28;20409;-67
2020/12/06 09:31:25;;;;;;;2.40;2.20;;;21.40;52.90;;;;;;5072605;28;20190;-67
2020/12/06 09:33:51;;;;;;;2.73;2.13;;;21.40;52.90;;;;;;5073016;28;20169;-68
2020/12/06 09:36:18;;;;;;;4.60;2.57;;;21.40;52.90;;;;;;5072676;28;20404;-65
2020/12/06 09:38:43;;;;;;;2.90;2.40;;;21.40;52.90;;;;;;5072632;28;20532;-65
2020/12/06 09:41:12;;;;;;;2.60;2.07;;;21.40;52.90;;;;;;5072588;28;20496;-67
2020/12/06 09:43:39;;;;;;;2.43;2.13;;;21.40;52.90;;;;;;5072896;28;20465;-67
2020/12/06 09:46:05;;;;;;;2.43;2.20;;;21.30;52.80;;;;;;5072681;28;20481;-67
2020/12/06 09:48:31;;;;;;;2.77;2.20;;;21.30;52.90;;;;;;5072667;28;20899;-67
2020/12/06 09:50:56;;;;;;;3.40;2.50;;;21.30;52.90;;;;;;5072823;28;20189;-67
2020/12/06 09:53:22;;;;;;;3.33;2.03;;;21.30;52.90;;;;;;5076438;28;20174;-67
2020/12/06 09:55:48;;;;;;;2.63;2.33;;;21.30;52.90;;;;;;5076555;28;20319;-67
2020/12/06 09:58:13;;;;;;;3.70;2.73;;;21.30;52.90;;;;;;5076510;28;20228;-67
2020/12/06 10:00:39;;;;;;;3.43;2.77;;;21.30;52.90;;;;;;5076174;28;20171;-67
2020/12/06 10:03:05;;;;;;;3.10;2.60;;;21.30;53.00;;;;;;5076026;28;20658;-66
2020/12/06 10:05:30;;;;;;;3.13;2.63;;;21.30;53.00;;;;;;5076127;28;20163;-68
2020/12/06 10:07:56;;;;;;;3.20;2.83;;;21.30;53.00;;;;;;5074827;28;20181;-68
2020/12/06 10:10:22;;;;;;;2.90;2.40;;;21.30;53.00;;;;;;5076318;28;20171;-68
2020/12/06 10:12:47;;;;;;;2.30;1.77;;;21.30;53.00;;;;;;5074684;28;20198;-68
2020/12/06 10:15:13;;;;;;;2.60;2.10;;;21.30;53.00;;;;;;5075697;28;20182;-67
2020/12/06 10:17:39;;;;;;;2.50;2.30;;;21.30;53.10;;;;;;5074744;28;20174;-68
2020/12/06 10:20:08;;;;;;;2.27;1.80;;;21.30;53.10;;;;;;5075741;28;20281;-68
2020/12/06 10:22:34;;;;;;;3.03;2.23;;;21.30;53.10;;;;;;5074436;28;20255;-67
2020/12/06 10:25:00;;;;;;;3.97;2.80;;;21.30;53.10;;;;;;5076058;28;20933;-67
2020/12/06 10:27:26;;;;;;;2.83;2.10;;;21.30;53.10;;;;;;5075663;28;20487;-68
2020/12/06 10:29:52;;;;;;;3.13;2.20;;;21.30;53.10;;;;;;5075935;28;20938;-67
2020/12/06 10:32:17;;;;;;;3.13;2.37;;;21.30;53.10;;;;;;5076059;28;20259;-68
2020/12/06 10:34:43;;;;;;;2.27;2.07;;;21.20;53.00;;;;;;5075615;28;20774;-68
2020/12/06 10:37:09;;;;;;;2.83;2.53;;;21.30;53.10;;;;;;5075606;28;20170;-69
2020/12/06 10:39:34;;;;;;;2.53;2.00;;;21.20;53.10;;;;;;5075417;28;20193;-69
2020/12/06 10:42:00;;;;;;;3.17;2.20;;;21.30;53.10;;;;;;5075462;28;20210;-68
2020/12/06 10:44:26;;;;;;;3.20;2.80;;;21.30;53.10;;;;;;5075437;28;20174;-68
2020/12/06 10:46:53;;;;;;;4.10;3.00;;;21.30;53.10;;;;;;5075645;28;20232;-69
2020/12/06 10:49:19;;;;;;;3.33;3.00;;;21.30;53.10;;;;;;5075462;28;20158;-69
2020/12/06 10:51:47;;;;;;;3.87;2.73;;;21.30;53.10;;;;;;5075556;28;20440;-69
2020/12/06 10:54:13;;;;;;;3.13;2.60;;;21.30;53.10;;;;;;5075460;28;20462;-68
2020/12/06 10:56:40;;;;;;;3.10;2.27;;;21.30;53.10;;;;;;5075303;28;20389;-69
2020/12/06 10:59:06;;;;;;;4.77;3.73;;;21.30;53.10;;;;;;5075039;28;20440;-69
2020/12/06 11:01:32;;;;;;;4.20;3.43;;;21.30;53.10;;;;;;5074890;28;20459;-69
2020/12/06 11:03:59;;;;;;;3.53;2.80;;;21.30;53.10;;;;;;5074912;28;20467;-69
2020/12/06 11:06:25;;;;;;;3.93;3.03;;;21.30;53.10;;;;;;5075295;28;20903;-69
2020/12/06 11:08:51;;;;;;;4.50;3.03;;;21.30;53.70;;;;;;5075237;28;20461;-69
2020/12/06 11:11:18;;;;;;;3.73;2.77;;;21.30;53.10;;;;;;5074820;28;20186;-69
2020/12/06 11:13:44;;;;;;;3.57;3.10;;;21.30;53.10;;;;;;5074789;28;20617;-69
2020/12/06 11:16:13;;;;;;;3.90;3.20;;;21.30;53.10;;;;;;5072775;28;20401;-69
2020/12/06 11:18:39;;;;;;;3.37;2.90;;;21.30;53.10;;;;;;5072693;28;20441;-70
2020/12/06 11:21:05;;;;;;;4.03;3.17;;;21.20;53.10;;;;;;5071256;28;20447;-69
2020/12/06 11:23:30;;;;;;;5.40;2.70;;;21.30;53.10;;;;;;5072545;28;20189;-69
2020/12/06 11:25:56;;;;;;;3.77;2.70;;;21.30;53.10;;;;;;5071262;28;20579;-70
2020/12/06 11:28:22;;;;;;;4.97;3.20;;;21.30;53.10;;;;;;5072601;28;20593;-70
2020/12/06 11:30:47;;;;;;;3.70;2.90;;;21.30;53.10;;;;;;5074256;28;20177;-69
2020/12/06 11:33:14;;;;;;;3.87;2.90;;;21.30;53.10;;;;;;5073292;28;20198;-69
2020/12/06 11:35:39;;;;;;;4.63;2.93;;;21.30;53.10;;;;;;5074497;28;20645;-69
2020/12/06 11:38:05;;;;;;;5.27;4.13;;;21.30;53.10;;;;;;5073129;28;20495;-69
2020/12/06 11:40:31;;;;;;;4.77;3.40;;;21.30;53.10;;;;;;5074429;28;20170;-69
2020/12/06 11:42:57;;;;;;;4.97;3.00;;;21.30;53.10;;;;;;5074186;28;20194;-69
2020/12/06 11:45:22;;;;;;;4.50;3.00;;;21.30;53.10;;;;;;5074198;28;20185;-68
2020/12/06 11:47:48;;;;;;;4.17;3.20;;;21.30;53.10;;;;;;5072915;28;20219;-71
2020/12/06 11:50:14;;;;;;;7.83;3.70;;;21.30;53.10;;;;;;5074260;28;20202;-69
2020/12/06 11:52:40;;;;;;;5.30;3.50;;;21.30;53.10;;;;;;5072791;28;20448;-69
2020/12/06 11:55:07;;;;;;;10.00;3.90;;;21.30;53.10;;;;;;5074084;28;20175;-70
2020/12/06 11:57:33;;;;;;;5.40;3.30;;;21.30;53.10;;;;;;5074302;28;20331;-69
2020/12/06 11:59:58;;;;;;;5.73;3.40;;;21.30;53.10;;;;;;5073868;28;20557;-68
2020/12/06 12:02:24;;;;;;;5.23;4.03;;;21.30;53.10;;;;;;5073931;28;20182;-69
2020/12/06 12:04:50;;;;;;;4.93;3.10;;;21.30;53.10;;;;;;5073939;28;20173;-69
2020/12/06 12:07:18;;;;;;;5.97;3.50;;;21.30;53.10;;;;;;5074001;28;20163;-69
2020/12/06 12:09:43;;;;;;;5.97;3.60;;;21.30;53.10;;;;;;5073849;28;20416;-69
2020/12/06 12:12:09;;;;;;;9.00;4.43;;;21.30;53.20;;;;;;5073779;28;20801;-69
2020/12/06 12:14:35;;;;;;;4.50;3.73;;;21.30;53.20;;;;;;5071759;28;20185;-69
2020/12/06 12:17:01;;;;;;;7.17;3.90;;;21.30;53.20;;;;;;5073944;28;20174;-70
2020/12/06 12:19:26;;;;;;;6.77;3.50;;;21.30;53.20;;;;;;5073490;28;20851;-69
2020/12/06 12:21:52;;;;;;;6.43;3.90;;;21.30;53.20;;;;;;5073474;28;20190;-69
2020/12/06 12:24:18;;;;;;;4.30;3.50;;;21.30;53.20;;;;;;5073547;28;20249;-69
2020/12/06 12:26:43;;;;;;;4.77;3.63;;;21.20;53.10;;;;;;5072302;28;20257;-67
2020/12/06 12:29:09;;;;;;;4.93;3.57;;;21.30;53.20;;;;;;5073468;28;20670;-69
2020/12/06 12:31:34;;;;;;;4.10;3.27;;;21.30;53.20;;;;;;5073358;28;20274;-69
2020/12/06 12:34:00;;;;;;;5.37;3.50;;;21.30;53.20;;;;;;5073423;28;20220;-69
2020/12/06 12:36:26;;;;;;;5.60;3.20;;;21.30;53.20;;;;;;5073404;28;20185;-69
2020/12/06 12:38:51;;;;;;;5.67;3.60;;;21.30;53.20;;;;;;5073244;28;20218;-69
2020/12/06 12:41:17;;;;;;;8.40;3.97;;;21.30;53.20;;;;;;5073473;28;20274;-69
2020/12/06 12:43:43;;;;;;;4.10;3.60;;;21.30;53.30;;;;;;5073124;28;20163;-69